Have a Safe July 4th! 

Flight Track Log - Related Links

Times and Time Zones

All times are in EDT time to prevent confusion due to time zone crossing. See the ASQ6137 flight status page for this flight to view local times or setup timezone preferences in your user account.

Time Position Orientation Groundspeed Altitude Reporting Facility
EDT Latitude Longitude Course Direction KTS MPH feet Rate Location/Type
Wed 07:08:29 AM 33.5703 -86.7464 50° Northeast 152 175 1,300  Level Atlanta Center
Wed 07:09:11 AM 33.5942 -86.7122 50° Northeast 179 206 2,600 1,729 Climbing Atlanta Center
Wed 07:09:28 AM 33.6050 -86.6950 53° Northeast 218 251 3,000 1,558 Climbing Atlanta Center
Wed 07:10:28 AM 33.6542 -86.6417 42° Northeast 237 273 4,600 1,950 Climbing Atlanta Center
Wed 07:11:28 AM 33.7075 -86.5808 43° Northeast 253 291 6,900 2,250 Climbing Atlanta Center
Wed 07:12:28 AM 33.7653 -86.5175 42° Northeast 258 297 9,100 1,850 Climbing Atlanta Center
Wed 07:13:28 AM 33.8250 -86.4494 43° Northeast 266 306 10,600 1,050 Climbing Atlanta Center
Wed 07:14:28 AM 33.8975 -86.3689 43° Northeast 304 350 11,200 1,000 Climbing Atlanta Center
Wed 07:15:28 AM 33.9678 -86.2881 44° Northeast 332 382 12,600 1,300 Climbing Atlanta Center
Wed 07:16:28 AM 34.0403 -86.2072 43° Northeast 344 396 13,800 1,150 Climbing Atlanta Center
Wed 07:17:28 AM 34.1169 -86.1214 43° Northeast 356 410 14,900 1,050 Climbing Atlanta Center
Wed 07:18:28 AM 34.1933 -86.0328 44° Northeast 362 417 15,900 1,050 Climbing Atlanta Center
Wed 07:19:28 AM 34.2719 -85.9467 42° Northeast 367 422 17,000 950 Climbing Atlanta Center
Wed 07:20:28 AM 34.3506 -85.8578 43° Northeast 374 430 17,800 850 Climbing Atlanta Center
Wed 07:21:28 AM 34.4206 -85.7764 44° Northeast 374 430 18,700 950 Climbing Atlanta Center
Wed 07:22:28 AM 34.5011 -85.6847 43° Northeast 379 436 19,700 1,150 Climbing Atlanta Center
Wed 07:23:28 AM 34.5817 -85.5931 43° Northeast 384 442 21,000 1,400 Climbing Atlanta Center
Wed 07:24:28 AM 34.6600 -85.5008 44° Northeast 384 442 22,500 1,500 Climbing Atlanta Center
Wed 07:25:28 AM 34.7403 -85.4114 42° Northeast 384 442 24,000 1,450 Climbing Atlanta Center
Wed 07:26:28 AM 34.8164 -85.3214 44° Northeast 384 442 25,400 1,350 Climbing Atlanta Center
Wed 07:27:28 AM 34.8925 -85.2317 44° Northeast 384 442 26,700 900 Climbing Atlanta Center
Wed 07:28:28 AM 34.9767 -85.1464 40° Northeast 384 442 27,200 700 Climbing Atlanta Center
Wed 07:29:28 AM 35.0878 -85.1150 13° North 384 442 28,100 950 Climbing Atlanta Center
Wed 07:30:28 AM 35.1986 -85.0886 11° North 390 449 29,100 1,000 Climbing Atlanta Center
Wed 07:31:28 AM 35.3114 -85.0594 12° North 396 456 30,100 1,000 Climbing Atlanta Center
Wed 07:32:28 AM 35.4242 -85.0328 11° North 401 461 31,100 1,000 Climbing Atlanta Center
Wed 07:33:28 AM 35.5350 -85.0058 11° North 411 473 32,100 1,150 Climbing Atlanta Center
Wed 07:34:28 AM 35.6500 -84.9767 12° North 411 473 33,400 950 Climbing Atlanta Center
Wed 07:35:28 AM 35.7631 -84.9472 12° North 411 473 34,000 172 Climbing Atlanta Center
Wed 07:37:57 AM 36.0753 -84.8683 12° North 456 525 34,000  Level Indianapolis Center
Wed 07:38:58 AM 36.2006 -84.8364 12° North 458 527 34,000  Level Indianapolis Center
Wed 07:40:00 AM 36.3253 -84.8047 12° North 457 526 34,000  Level Indianapolis Center
Wed 07:41:01 AM 36.4519 -84.7719 12° North 462 532 34,000  Level Indianapolis Center
Wed 07:42:03 AM 36.5767 -84.7344 14° North 462 532 34,000  Level Indianapolis Center
Wed 07:43:04 AM 36.7258 -84.6900 13° North 460 529 34,000  Level Indianapolis Center
Wed 07:44:06 AM 36.8503 -84.6547 13° North 459 528 34,000  Level Indianapolis Center
Wed 07:45:07 AM 36.9753 -84.6117 15° North 463 533 34,000  Level Indianapolis Center
Wed 07:46:09 AM 37.0911 -84.5411 26° Northeast 463 533 34,000  Level Indianapolis Center
Wed 07:47:10 AM 37.2097 -84.4736 24° Northeast 465 535 34,000  Level Indianapolis Center
Wed 07:48:12 AM 37.3258 -84.4086 24° Northeast 458 527 34,000  Level Indianapolis Center
Wed 07:49:13 AM 37.4483 -84.3844 North 455 524 34,000  Level Indianapolis Center
Wed 07:50:15 AM 37.5628 -84.4275 343° North 433 498 34,000  Level Indianapolis Center
Wed 07:51:17 AM 37.7000 -84.4819 343° North 440 506 34,000  Level Indianapolis Center
Wed 07:52:18 AM 37.8167 -84.5325 341° North 443 510 34,000  Level Indianapolis Center
Wed 07:53:20 AM 37.9358 -84.5803 342° North 447 514 34,000 -244 Level Indianapolis Center
Wed 07:54:21 AM 38.0536 -84.6300 342° North 448 516 33,500 -732 Descending Indianapolis Center
Wed 07:55:23 AM 38.1717 -84.6789 342° North 445 512 32,500 -732 Descending Indianapolis Center
Wed 07:56:24 AM 38.2867 -84.7283 341° North 440 506 32,000 -244 Descending Indianapolis Center
Wed 07:57:26 AM 38.4058 -84.7744 343° North 443 510 32,000  Level Indianapolis Center
Wed 07:58:27 AM 38.5411 -84.8328 341° North 440 506 32,000  Level Indianapolis Center
Wed 07:59:29 AM 38.6608 -84.8833 342° North 448 516 32,000  Level Indianapolis Center
Wed 08:00:31 AM 38.7806 -84.9336 342° North 450 518 32,000  Level Indianapolis Center
Wed 08:01:32 AM 38.9011 -84.9861 341° North 453 521 32,000  Level Indianapolis Center
Wed 08:02:34 AM 39.0217 -85.0364 342° North 453 521 32,000  Level Indianapolis Center
Wed 08:03:36 AM 39.1425 -85.0886 341° North 456 525 32,000 -49 Level Indianapolis Center
Wed 08:04:37 AM 39.2639 -85.1406 342° North 456 525 31,900 -878 Descending Indianapolis Center
Wed 08:05:39 AM 39.3861 -85.1925 342° North 459 528 30,200 -1,790 Descending Indianapolis Center
Wed 08:06:41 AM 39.5308 -85.2553 342° North 467 537 28,200 -1,073 Descending Indianapolis Center
Wed 08:07:42 AM 39.6558 -85.3094 342° North 471 542 28,000 -98 Descending Indianapolis Center
Wed 08:08:44 AM 39.7783 -85.3631 341° North 466 536 28,000 -435 Level Indianapolis Center
Wed 08:09:46 AM 39.9014 -85.4169 341° North 466 536 27,100 -927 Descending Indianapolis Center
Wed 08:10:47 AM 40.0161 -85.4958 332° Northwest 471 542 26,100 -537 Descending Indianapolis Center
Wed 08:11:49 AM 40.1125 -85.6142 317° Northwest 474 545 26,000 -58 Descending Indianapolis Center
Wed 08:12:30 AM 40.1756 -85.6906 317° Northwest 472 543 26,000  Level Chicago Center
Wed 08:13:32 AM 40.2714 -85.8078 317° Northwest 471 542 26,000  Level Chicago Center
Wed 08:14:34 AM 40.3833 -85.9469 317° Northwest 475 547 26,000  Level Chicago Center
Wed 08:15:35 AM 40.4797 -86.0681 316° Northwest 477 549 26,000  Level Chicago Center
Wed 08:16:37 AM 40.5767 -86.1872 317° Northwest 477 549 26,000  Level Chicago Center
Wed 08:17:39 AM 40.6725 -86.3086 316° Northwest 478 550 26,000  Level Chicago Center
Wed 08:18:41 AM 40.7625 -86.4231 316° Northwest 474 545 26,000 -629 Level Chicago Center
Wed 08:19:43 AM 40.8589 -86.5431 317° Northwest 473 544 24,700 -1,887 Descending Chicago Center
Wed 08:20:45 AM 40.9697 -86.6858 316° Northwest 462 532 22,100 -2,390 Descending Chicago Center
Wed 08:21:46 AM 41.0458 -86.7817 316° Northwest 429 494 19,800 -2,585 Descending Chicago Center
Wed 08:22:48 AM 41.1383 -86.9000 316° Northwest 386 444 16,800 -2,710 Descending Chicago Center
Wed 08:23:50 AM 41.2161 -86.9994 316° Northwest 390 449 14,200 -2,371 Descending Chicago Center
Wed 08:24:52 AM 41.2964 -87.1064 315° West 408 470 11,900 -1,548 Descending Chicago Center
Wed 08:25:54 AM 41.3783 -87.2094 317° Northwest 410 472 11,000 -435 Descending Chicago Center
Wed 08:26:56 AM 41.4569 -87.3033 318° Northwest 390 449 11,000  Level Chicago Center
Wed 08:27:32 AM 41.5167 -87.3667 322° Northwest 388 447 11,000  Level Chicago TRACON
Wed 08:27:57 AM 41.5378 -87.3967 313° West 387 445 11,000  Level Chicago Center
Wed 08:28:59 AM 41.6378 -87.5067 321° Northwest 393 452 11,000  Level Chicago Center
Wed 08:30:01 AM 41.7206 -87.6003 320° Northwest 394 453 11,000 -128 Level Chicago Center
Wed 08:30:33 AM 41.7667 -87.6500 321° Northwest 359 413 10,800 -717 Descending Chicago TRACON
Wed 08:31:33 AM 41.8333 -87.7333 317° Northwest 325 374 9,900 -1,000 Descending Chicago TRACON
Wed 08:32:33 AM 41.8833 -87.8167 309° West 306 352 8,800 -1,000 Descending Chicago TRACON
Wed 08:33:27 AM 41.9333 -87.9167 304° West 298 343 8,000 -650 Descending Chicago TRACON
Wed 08:34:33 AM 41.9667 -88.0000 298° West 271 312 7,500 -764 Descending Chicago TRACON
Wed 08:36:12 AM 42.0344 -88.1136 309° West 245 282 5,900 -1,000 Descending Chicago Center
Wed 08:36:27 AM 42.0500 -88.1333 317° Northwest 236 272 5,600 -968 Descending Chicago TRACON
Wed 08:37:14 AM 42.0831 -88.1628 327° Northwest 235 270 4,900 -881 Descending Chicago Center
Wed 08:38:16 AM 42.1208 -88.0933 54° Northeast 250 288 4,000 -780 Descending Chicago Center
Wed 08:39:17 AM 42.0703 -88.0236 134° Southeast 221 254 3,300 -857 Descending Chicago Center
Wed 08:39:33 AM 42.0500 -88.0000 139° Southeast 214 246 2,900 -1,247 Descending Chicago TRACON
Wed 08:40:34 AM 42.0167 -87.9667 143° Southeast 172 198 1,700 -1,180 Descending Chicago TRACON
Wed 08:43:00 AM 41.9817 -87.9067 114° Southeast  Level Estimated

Login

Don't have an account? Register now (free) for customized features, flight alerts, and more!